sensor_id;sensor_type;location;lat;lon;timestamp;temperature;humidity
7002;DHT22;3541;53.230;10.518;2023-09-08T00:01:48;23.50;99.90
7002;DHT22;3541;53.230;10.518;2023-09-08T00:04:14;23.50;99.90
7002;DHT22;3541;53.230;10.518;2023-09-08T00:06:41;23.60;99.90
7002;DHT22;3541;53.230;10.518;2023-09-08T00:09:08;23.60;99.90
7002;DHT22;3541;53.230;10.518;2023-09-08T00:11:36;23.50;99.90
7002;DHT22;3541;53.230;10.518;2023-09-08T00:14:02;23.50;99.90
7002;DHT22;3541;53.230;10.518;2023-09-08T00:16:29;23.50;99.90
7002;DHT22;3541;53.230;10.518;2023-09-08T00:18:56;23.60;99.90
7002;DHT22;3541;53.230;10.518;2023-09-08T00:21:23;23.50;99.90
7002;DHT22;3541;53.230;10.518;2023-09-08T00:23:50;23.40;99.90
7002;DHT22;3541;53.230;10.518;2023-09-08T00:26:17;23.50;99.90
7002;DHT22;3541;53.230;10.518;2023-09-08T00:28:45;23.50;99.90
7002;DHT22;3541;53.230;10.518;2023-09-08T00:31:11;23.50;99.90
7002;DHT22;3541;53.230;10.518;2023-09-08T00:33:38;23.50;99.90
7002;DHT22;3541;53.230;10.518;2023-09-08T00:36:06;23.50;99.90
7002;DHT22;3541;53.230;10.518;2023-09-08T00:38:33;23.40;99.90
7002;DHT22;3541;53.230;10.518;2023-09-08T00:40:59;23.40;99.90
7002;DHT22;3541;53.230;10.518;2023-09-08T00:43:26;23.40;99.90
7002;DHT22;3541;53.230;10.518;2023-09-08T00:45:55;23.30;99.90
7002;DHT22;3541;53.230;10.518;2023-09-08T00:48:24;23.40;99.90
7002;DHT22;3541;53.230;10.518;2023-09-08T00:50:51;23.40;99.90
7002;DHT22;3541;53.230;10.518;2023-09-08T00:53:17;23.30;99.90
7002;DHT22;3541;53.230;10.518;2023-09-08T00:55:45;23.30;99.90
7002;DHT22;3541;53.230;10.518;2023-09-08T00:58:12;23.30;99.90
7002;DHT22;3541;53.230;10.518;2023-09-08T01:00:38;23.20;99.90
7002;DHT22;3541;53.230;10.518;2023-09-08T01:03:06;23.20;99.90
7002;DHT22;3541;53.230;10.518;2023-09-08T01:05:33;23.10;99.90
7002;DHT22;3541;53.230;10.518;2023-09-08T01:08:00;23.00;99.90
7002;DHT22;3541;53.230;10.518;2023-09-08T01:10:28;23.00;99.90
7002;DHT22;3541;53.230;10.518;2023-09-08T01:12:54;22.90;99.90
7002;DHT22;3541;53.230;10.518;2023-09-08T01:15:21;22.80;99.90
7002;DHT22;3541;53.230;10.518;2023-09-08T01:17:48;22.80;99.90
7002;DHT22;3541;53.230;10.518;2023-09-08T01:20:19;22.80;99.90
7002;DHT22;3541;53.230;10.518;2023-09-08T01:23:01;22.70;99.90
7002;DHT22;3541;53.230;10.518;2023-09-08T01:25:30;22.60;99.90
7002;DHT22;3541;53.230;10.518;2023-09-08T01:28:00;22.60;99.90
7002;DHT22;3541;53.230;10.518;2023-09-08T01:30:29;22.50;99.90
7002;DHT22;3541;53.230;10.518;2023-09-08T01:32:58;22.50;99.90
7002;DHT22;3541;53.230;10.518;2023-09-08T01:35:26;22.50;99.90
7002;DHT22;3541;53.230;10.518;2023-09-08T01:37:52;22.40;99.90
7002;DHT22;3541;53.230;10.518;2023-09-08T01:40:19;22.40;99.90
7002;DHT22;3541;53.230;10.518;2023-09-08T01:42:47;22.40;99.90
7002;DHT22;3541;53.230;10.518;2023-09-08T01:45:14;22.30;99.90
7002;DHT22;3541;53.230;10.518;2023-09-08T01:47:41;22.30;99.90
7002;DHT22;3541;53.230;10.518;2023-09-08T01:50:08;22.30;99.90
7002;DHT22;3541;53.230;10.518;2023-09-08T01:52:35;22.30;99.90
7002;DHT22;3541;53.230;10.518;2023-09-08T01:55:02;22.20;99.90
7002;DHT22;3541;53.230;10.518;2023-09-08T01:57:29;22.20;99.90
7002;DHT22;3541;53.230;10.518;2023-09-08T01:59:56;22.30;99.90
7002;DHT22;3541;53.230;10.518;2023-09-08T02:02:23;22.20;99.90
7002;DHT22;3541;53.230;10.518;2023-09-08T02:04:50;22.20;99.90
7002;DHT22;3541;53.230;10.518;2023-09-08T02:07:16;22.20;99.90
7002;DHT22;3541;53.230;10.518;2023-09-08T02:09:43;22.10;99.90
7002;DHT22;3541;53.230;10.518;2023-09-08T02:12:09;22.00;99.90
7002;DHT22;3541;53.230;10.518;2023-09-08T02:14:36;22.00;99.90
7002;DHT22;3541;53.230;10.518;2023-09-08T02:17:04;21.90;99.90
7002;DHT22;3541;53.230;10.518;2023-09-08T02:19:31;21.90;99.90
7002;DHT22;3541;53.230;10.518;2023-09-08T02:21:58;21.80;99.90
7002;DHT22;3541;53.230;10.518;2023-09-08T02:24:24;21.70;99.90
7002;DHT22;3541;53.230;10.518;2023-09-08T02:26:51;21.70;99.90
7002;DHT22;3541;53.230;10.518;2023-09-08T02:29:17;21.60;99.90
7002;DHT22;3541;53.230;10.518;2023-09-08T02:31:44;21.70;99.90
7002;DHT22;3541;53.230;10.518;2023-09-08T02:34:12;21.70;99.90
7002;DHT22;3541;53.230;10.518;2023-09-08T02:36:39;21.60;99.90
7002;DHT22;3541;53.230;10.518;2023-09-08T02:39:05;21.60;99.90
7002;DHT22;3541;53.230;10.518;2023-09-08T02:41:32;21.50;99.90
7002;DHT22;3541;53.230;10.518;2023-09-08T02:43:59;21.60;99.90
7002;DHT22;3541;53.230;10.518;2023-09-08T02:46:25;21.60;99.90
7002;DHT22;3541;53.230;10.518;2023-09-08T02:48:52;21.50;99.90
7002;DHT22;3541;53.230;10.518;2023-09-08T02:51:20;21.50;99.90
7002;DHT22;3541;53.230;10.518;2023-09-08T02:53:47;21.40;99.90
7002;DHT22;3541;53.230;10.518;2023-09-08T02:56:13;21.50;99.90
7002;DHT22;3541;53.230;10.518;2023-09-08T02:58:40;21.50;99.90
7002;DHT22;3541;53.230;10.518;2023-09-08T03:01:10;21.40;99.90
7002;DHT22;3541;53.230;10.518;2023-09-08T03:03:39;21.40;99.90
7002;DHT22;3541;53.230;10.518;2023-09-08T03:06:05;21.40;99.90
7002;DHT22;3541;53.230;10.518;2023-09-08T03:08:33;21.30;99.90
7002;DHT22;3541;53.230;10.518;2023-09-08T03:11:02;21.30;99.90
7002;DHT22;3541;53.230;10.518;2023-09-08T03:13:29;21.30;99.90
7002;DHT22;3541;53.230;10.518;2023-09-08T03:15:56;21.20;99.90
7002;DHT22;3541;53.230;10.518;2023-09-08T03:18:23;21.20;99.90
7002;DHT22;3541;53.230;10.518;2023-09-08T03:20:50;21.20;99.90
7002;DHT22;3541;53.230;10.518;2023-09-08T03:23:16;21.10;99.90
7002;DHT22;3541;53.230;10.518;2023-09-08T03:25:44;21.10;99.90
7002;DHT22;3541;53.230;10.518;2023-09-08T03:28:11;21.10;99.90
7002;DHT22;3541;53.230;10.518;2023-09-08T03:30:38;21.00;99.90
7002;DHT22;3541;53.230;10.518;2023-09-08T03:33:04;21.00;99.90
7002;DHT22;3541;53.230;10.518;2023-09-08T03:35:31;21.00;99.90
7002;DHT22;3541;53.230;10.518;2023-09-08T03:37:57;20.90;99.90
7002;DHT22;3541;53.230;10.518;2023-09-08T03:40:24;21.00;99.90
7002;DHT22;3541;53.230;10.518;2023-09-08T03:42:52;20.90;99.90
7002;DHT22;3541;53.230;10.518;2023-09-08T03:45:19;21.00;99.90
7002;DHT22;3541;53.230;10.518;2023-09-08T03:47:45;20.90;99.90
7002;DHT22;3541;53.230;10.518;2023-09-08T03:50:12;20.90;99.90
7002;DHT22;3541;53.230;10.518;2023-09-08T03:52:38;20.80;99.90
7002;DHT22;3541;53.230;10.518;2023-09-08T03:55:05;20.90;99.90
7002;DHT22;3541;53.230;10.518;2023-09-08T03:57:32;21.00;99.90
7002;DHT22;3541;53.230;10.518;2023-09-08T04:00:00;20.90;99.90
7002;DHT22;3541;53.230;10.518;2023-09-08T04:02:26;20.90;99.90
7002;DHT22;3541;53.230;10.518;2023-09-08T04:04:53;20.90;99.90
7002;DHT22;3541;53.230;10.518;2023-09-08T04:07:20;20.80;99.90
7002;DHT22;3541;53.230;10.518;2023-09-08T04:09:46;20.80;99.90
7002;DHT22;3541;53.230;10.518;2023-09-08T04:12:13;20.80;99.90
7002;DHT22;3541;53.230;10.518;2023-09-08T04:14:39;20.80;99.90
7002;DHT22;3541;53.230;10.518;2023-09-08T04:17:07;20.80;99.90
7002;DHT22;3541;53.230;10.518;2023-09-08T04:19:34;20.80;99.90
7002;DHT22;3541;53.230;10.518;2023-09-08T04:22:00;20.80;99.90
7002;DHT22;3541;53.230;10.518;2023-09-08T04:24:27;20.70;99.90
7002;DHT22;3541;53.230;10.518;2023-09-08T04:26:53;20.70;99.90
7002;DHT22;3541;53.230;10.518;2023-09-08T04:29:20;20.60;99.90
7002;DHT22;3541;53.230;10.518;2023-09-08T04:31:47;20.70;99.90
7002;DHT22;3541;53.230;10.518;2023-09-08T04:34:14;20.60;99.90
7002;DHT22;3541;53.230;10.518;2023-09-08T04:36:41;20.50;99.90
7002;DHT22;3541;53.230;10.518;2023-09-08T04:39:08;20.50;99.90
7002;DHT22;3541;53.230;10.518;2023-09-08T04:41:37;20.50;99.90
7002;DHT22;3541;53.230;10.518;2023-09-08T04:44:04;20.50;99.90
7002;DHT22;3541;53.230;10.518;2023-09-08T04:46:31;20.40;99.90
7002;DHT22;3541;53.230;10.518;2023-09-08T04:48:57;20.40;99.90
7002;DHT22;3541;53.230;10.518;2023-09-08T04:51:25;20.40;99.90
7002;DHT22;3541;53.230;10.518;2023-09-08T04:53:52;20.40;99.90
7002;DHT22;3541;53.230;10.518;2023-09-08T04:56:18;20.40;99.90
7002;DHT22;3541;53.230;10.518;2023-09-08T04:58:45;20.40;99.90
7002;DHT22;3541;53.230;10.518;2023-09-08T05:01:11;20.30;99.90
7002;DHT22;3541;53.230;10.518;2023-09-08T05:03:38;20.40;99.90
7002;DHT22;3541;53.230;10.518;2023-09-08T05:06:04;20.40;99.90
7002;DHT22;3541;53.230;10.518;2023-09-08T05:08:32;20.30;99.90
7002;DHT22;3541;53.230;10.518;2023-09-08T05:10:59;20.30;99.90
7002;DHT22;3541;53.230;10.518;2023-09-08T05:13:25;20.30;99.90
7002;DHT22;3541;53.230;10.518;2023-09-08T05:15:52;20.20;99.90
7002;DHT22;3541;53.230;10.518;2023-09-08T05:18:25;20.30;99.90
7002;DHT22;3541;53.230;10.518;2023-09-08T05:20:52;20.20;99.90
7002;DHT22;3541;53.230;10.518;2023-09-08T05:23:18;20.20;99.90
7002;DHT22;3541;53.230;10.518;2023-09-08T05:25:46;20.20;99.90
7002;DHT22;3541;53.230;10.518;2023-09-08T05:28:13;20.20;99.90
7002;DHT22;3541;53.230;10.518;2023-09-08T05:30:39;20.30;99.90
7002;DHT22;3541;53.230;10.518;2023-09-08T05:33:06;20.30;99.90
7002;DHT22;3541;53.230;10.518;2023-09-08T05:35:33;20.30;99.90
7002;DHT22;3541;53.230;10.518;2023-09-08T05:37:59;20.30;99.90
7002;DHT22;3541;53.230;10.518;2023-09-08T05:40:26;20.30;99.90
7002;DHT22;3541;53.230;10.518;2023-09-08T05:42:54;20.20;99.90
7002;DHT22;3541;53.230;10.518;2023-09-08T05:45:20;20.30;99.90
7002;DHT22;3541;53.230;10.518;2023-09-08T05:47:47;20.20;99.90
7002;DHT22;3541;53.230;10.518;2023-09-08T05:50:16;20.20;99.90
7002;DHT22;3541;53.230;10.518;2023-09-08T05:52:43;20.20;99.90
7002;DHT22;3541;53.230;10.518;2023-09-08T05:55:10;20.10;99.90
7002;DHT22;3541;53.230;10.518;2023-09-08T05:57:36;20.20;99.90
7002;DHT22;3541;53.230;10.518;2023-09-08T06:00:05;20.20;99.90
7002;DHT22;3541;53.230;10.518;2023-09-08T06:02:32;20.20;99.90
7002;DHT22;3541;53.230;10.518;2023-09-08T06:04:58;20.20;99.90
7002;DHT22;3541;53.230;10.518;2023-09-08T06:07:25;20.30;99.90
7002;DHT22;3541;53.230;10.518;2023-09-08T06:09:52;20.30;99.90
7002;DHT22;3541;53.230;10.518;2023-09-08T06:12:18;20.40;99.90
7002;DHT22;3541;53.230;10.518;2023-09-08T06:14:45;20.40;99.90
7002;DHT22;3541;53.230;10.518;2023-09-08T06:17:12;20.40;99.90
7002;DHT22;3541;53.230;10.518;2023-09-08T06:19:39;20.40;99.90
7002;DHT22;3541;53.230;10.518;2023-09-08T06:22:06;20.50;99.90
7002;DHT22;3541;53.230;10.518;2023-09-08T06:24:32;20.50;99.90
7002;DHT22;3541;53.230;10.518;2023-09-08T06:26:59;20.60;99.90
7002;DHT22;3541;53.230;10.518;2023-09-08T06:29:25;20.60;99.90
7002;DHT22;3541;53.230;10.518;2023-09-08T06:31:52;20.60;99.90
7002;DHT22;3541;53.230;10.518;2023-09-08T06:34:20;20.70;99.90
7002;DHT22;3541;53.230;10.518;2023-09-08T06:36:48;20.60;99.90
7002;DHT22;3541;53.230;10.518;2023-09-08T06:39:14;20.70;99.90
7002;DHT22;3541;53.230;10.518;2023-09-08T06:41:41;20.70;99.90
7002;DHT22;3541;53.230;10.518;2023-09-08T06:44:07;20.80;99.90
7002;DHT22;3541;53.230;10.518;2023-09-08T06:46:34;20.80;99.90
7002;DHT22;3541;53.230;10.518;2023-09-08T06:49:00;20.90;99.90
7002;DHT22;3541;53.230;10.518;2023-09-08T06:51:28;20.90;99.90
7002;DHT22;3541;53.230;10.518;2023-09-08T06:53:55;21.00;99.90
7002;DHT22;3541;53.230;10.518;2023-09-08T06:56:22;21.00;99.90
7002;DHT22;3541;53.230;10.518;2023-09-08T06:58:49;21.00;99.90
7002;DHT22;3541;53.230;10.518;2023-09-08T07:01:15;21.00;99.90
7002;DHT22;3541;53.230;10.518;2023-09-08T07:03:42;21.10;99.90
7002;DHT22;3541;53.230;10.518;2023-09-08T07:06:09;21.10;99.90
7002;DHT22;3541;53.230;10.518;2023-09-08T07:08:36;21.20;99.90
7002;DHT22;3541;53.230;10.518;2023-09-08T07:11:03;21.20;99.90
7002;DHT22;3541;53.230;10.518;2023-09-08T07:13:30;21.30;99.90
7002;DHT22;3541;53.230;10.518;2023-09-08T07:15:56;21.30;99.90
7002;DHT22;3541;53.230;10.518;2023-09-08T07:18:23;21.40;99.90
7002;DHT22;3541;53.230;10.518;2023-09-08T07:20:49;21.50;99.90
7002;DHT22;3541;53.230;10.518;2023-09-08T07:23:16;21.50;99.90
7002;DHT22;3541;53.230;10.518;2023-09-08T07:25:46;21.50;99.90
7002;DHT22;3541;53.230;10.518;2023-09-08T07:28:13;21.60;99.90
7002;DHT22;3541;53.230;10.518;2023-09-08T07:30:40;21.70;99.90
7002;DHT22;3541;53.230;10.518;2023-09-08T07:33:06;21.70;99.90
7002;DHT22;3541;53.230;10.518;2023-09-08T07:35:36;21.70;99.90
7002;DHT22;3541;53.230;10.518;2023-09-08T07:38:03;21.80;99.90
7002;DHT22;3541;53.230;10.518;2023-09-08T07:40:29;21.80;99.90
7002;DHT22;3541;53.230;10.518;2023-09-08T07:42:57;21.90;99.90
7002;DHT22;3541;53.230;10.518;2023-09-08T07:45:24;21.80;99.90
7002;DHT22;3541;53.230;10.518;2023-09-08T07:47:51;21.90;99.90
7002;DHT22;3541;53.230;10.518;2023-09-08T07:50:19;22.00;99.90
7002;DHT22;3541;53.230;10.518;2023-09-08T07:52:46;22.10;99.90
7002;DHT22;3541;53.230;10.518;2023-09-08T07:55:13;22.10;99.90
7002;DHT22;3541;53.230;10.518;2023-09-08T07:57:41;22.20;99.90
7002;DHT22;3541;53.230;10.518;2023-09-08T08:00:09;22.30;99.90
7002;DHT22;3541;53.230;10.518;2023-09-08T08:02:37;22.30;99.90
7002;DHT22;3541;53.230;10.518;2023-09-08T08:05:04;22.40;99.90
7002;DHT22;3541;53.230;10.518;2023-09-08T08:07:31;22.40;99.90
7002;DHT22;3541;53.230;10.518;2023-09-08T08:09:57;22.50;99.90
7002;DHT22;3541;53.230;10.518;2023-09-08T08:12:24;22.50;99.90
7002;DHT22;3541;53.230;10.518;2023-09-08T08:14:50;22.60;99.90
7002;DHT22;3541;53.230;10.518;2023-09-08T08:17:18;22.60;99.90
7002;DHT22;3541;53.230;10.518;2023-09-08T08:19:45;22.70;99.90
7002;DHT22;3541;53.230;10.518;2023-09-08T08:22:12;22.80;99.90
7002;DHT22;3541;53.230;10.518;2023-09-08T08:24:39;22.90;99.90
7002;DHT22;3541;53.230;10.518;2023-09-08T08:27:05;23.00;99.90
7002;DHT22;3541;53.230;10.518;2023-09-08T08:29:32;23.10;99.90
7002;DHT22;3541;53.230;10.518;2023-09-08T08:31:58;23.10;99.90
7002;DHT22;3541;53.230;10.518;2023-09-08T08:34:26;23.10;99.90
7002;DHT22;3541;53.230;10.518;2023-09-08T08:36:53;23.20;99.90
7002;DHT22;3541;53.230;10.518;2023-09-08T08:39:20;23.20;99.90
7002;DHT22;3541;53.230;10.518;2023-09-08T08:41:46;23.20;99.90
7002;DHT22;3541;53.230;10.518;2023-09-08T08:44:13;23.30;99.90
7002;DHT22;3541;53.230;10.518;2023-09-08T08:46:42;23.30;99.90
7002;DHT22;3541;53.230;10.518;2023-09-08T08:49:09;23.40;99.90
7002;DHT22;3541;53.230;10.518;2023-09-08T08:51:39;23.50;99.90
7002;DHT22;3541;53.230;10.518;2023-09-08T08:54:08;23.50;99.90
7002;DHT22;3541;53.230;10.518;2023-09-08T08:56:36;23.60;99.90
7002;DHT22;3541;53.230;10.518;2023-09-08T08:59:03;23.70;99.90
7002;DHT22;3541;53.230;10.518;2023-09-08T09:01:30;23.80;99.90
7002;DHT22;3541;53.230;10.518;2023-09-08T09:03:58;23.80;99.90
7002;DHT22;3541;53.230;10.518;2023-09-08T09:06:24;24.00;99.90
7002;DHT22;3541;53.230;10.518;2023-09-08T09:08:52;24.00;99.90
7002;DHT22;3541;53.230;10.518;2023-09-08T09:11:19;24.20;99.90
7002;DHT22;3541;53.230;10.518;2023-09-08T09:13:46;24.30;99.90
7002;DHT22;3541;53.230;10.518;2023-09-08T09:16:12;24.30;99.90
7002;DHT22;3541;53.230;10.518;2023-09-08T09:18:54;24.40;99.90
7002;DHT22;3541;53.230;10.518;2023-09-08T09:21:22;24.50;99.90
7002;DHT22;3541;53.230;10.518;2023-09-08T09:23:49;24.50;99.90
7002;DHT22;3541;53.230;10.518;2023-09-08T09:26:25;24.60;99.90
7002;DHT22;3541;53.230;10.518;2023-09-08T09:28:51;24.70;99.90
7002;DHT22;3541;53.230;10.518;2023-09-08T09:31:22;24.80;99.90
7002;DHT22;3541;53.230;10.518;2023-09-08T09:34:01;24.90;99.90
7002;DHT22;3541;53.230;10.518;2023-09-08T09:36:28;24.90;99.90
7002;DHT22;3541;53.230;10.518;2023-09-08T09:38:58;24.90;99.90
7002;DHT22;3541;53.230;10.518;2023-09-08T09:41:27;25.10;99.90
7002;DHT22;3541;53.230;10.518;2023-09-08T09:43:54;25.10;99.90
7002;DHT22;3541;53.230;10.518;2023-09-08T09:46:21;25.20;99.90
7002;DHT22;3541;53.230;10.518;2023-09-08T09:48:51;25.30;99.90
7002;DHT22;3541;53.230;10.518;2023-09-08T09:51:19;25.30;99.90
7002;DHT22;3541;53.230;10.518;2023-09-08T09:53:46;25.50;99.90
7002;DHT22;3541;53.230;10.518;2023-09-08T09:56:13;25.50;99.90
7002;DHT22;3541;53.230;10.518;2023-09-08T09:58:42;25.60;99.90
7002;DHT22;3541;53.230;10.518;2023-09-08T10:01:10;25.70;99.90
7002;DHT22;3541;53.230;10.518;2023-09-08T10:03:38;25.70;99.90
7002;DHT22;3541;53.230;10.518;2023-09-08T10:06:05;25.80;99.90
7002;DHT22;3541;53.230;10.518;2023-09-08T10:08:34;25.90;99.90
7002;DHT22;3541;53.230;10.518;2023-09-08T10:11:05;26.00;99.90
7002;DHT22;3541;53.230;10.518;2023-09-08T10:13:38;26.10;99.90
7002;DHT22;3541;53.230;10.518;2023-09-08T10:16:08;26.10;99.90
7002;DHT22;3541;53.230;10.518;2023-09-08T10:18:39;26.10;99.90
7002;DHT22;3541;53.230;10.518;2023-09-08T10:21:09;26.30;99.90
7002;DHT22;3541;53.230;10.518;2023-09-08T10:23:38;26.40;99.90
7002;DHT22;3541;53.230;10.518;2023-09-08T10:26:10;26.40;99.90
7002;DHT22;3541;53.230;10.518;2023-09-08T10:28:37;26.50;99.90
7002;DHT22;3541;53.230;10.518;2023-09-08T10:31:04;26.50;99.90
7002;DHT22;3541;53.230;10.518;2023-09-08T10:33:33;26.70;99.90
7002;DHT22;3541;53.230;10.518;2023-09-08T10:36:01;26.80;99.90
7002;DHT22;3541;53.230;10.518;2023-09-08T10:38:32;26.90;99.90
7002;DHT22;3541;53.230;10.518;2023-09-08T10:41:26;26.80;99.90
7002;DHT22;3541;53.230;10.518;2023-09-08T10:43:55;27.00;99.90
7002;DHT22;3541;53.230;10.518;2023-09-08T10:46:26;27.20;99.90
7002;DHT22;3541;53.230;10.518;2023-09-08T10:48:54;27.20;99.90
7002;DHT22;3541;53.230;10.518;2023-09-08T10:51:22;27.30;99.90
7002;DHT22;3541;53.230;10.518;2023-09-08T10:53:50;27.40;99.90
7002;DHT22;3541;53.230;10.518;2023-09-08T10:56:17;27.40;99.90
7002;DHT22;3541;53.230;10.518;2023-09-08T10:58:43;27.50;99.90
7002;DHT22;3541;53.230;10.518;2023-09-08T11:01:16;27.50;99.90
7002;DHT22;3541;53.230;10.518;2023-09-08T11:03:44;27.50;99.90
7002;DHT22;3541;53.230;10.518;2023-09-08T11:06:15;27.60;99.90
7002;DHT22;3541;53.230;10.518;2023-09-08T11:08:43;27.70;99.90
7002;DHT22;3541;53.230;10.518;2023-09-08T11:11:10;27.80;99.90
7002;DHT22;3541;53.230;10.518;2023-09-08T11:13:37;27.90;99.90
7002;DHT22;3541;53.230;10.518;2023-09-08T11:16:05;27.90;99.90
7002;DHT22;3541;53.230;10.518;2023-09-08T11:18:33;28.00;99.90
7002;DHT22;3541;53.230;10.518;2023-09-08T11:21:01;28.20;99.90
7002;DHT22;3541;53.230;10.518;2023-09-08T11:23:30;28.30;99.90
7002;DHT22;3541;53.230;10.518;2023-09-08T11:25:56;28.30;99.90
7002;DHT22;3541;53.230;10.518;2023-09-08T11:28:24;28.30;99.90
7002;DHT22;3541;53.230;10.518;2023-09-08T11:30:51;28.30;99.90
7002;DHT22;3541;53.230;10.518;2023-09-08T11:33:18;28.30;99.90
7002;DHT22;3541;53.230;10.518;2023-09-08T11:35:50;28.30;99.90
7002;DHT22;3541;53.230;10.518;2023-09-08T11:38:17;28.40;99.90
7002;DHT22;3541;53.230;10.518;2023-09-08T11:40:45;28.60;99.90
7002;DHT22;3541;53.230;10.518;2023-09-08T11:43:12;28.70;99.90
7002;DHT22;3541;53.230;10.518;2023-09-08T11:45:39;28.80;99.90
7002;DHT22;3541;53.230;10.518;2023-09-08T11:48:09;28.80;99.90
7002;DHT22;3541;53.230;10.518;2023-09-08T11:50:36;28.90;99.90
7002;DHT22;3541;53.230;10.518;2023-09-08T11:53:03;29.00;99.90
7002;DHT22;3541;53.230;10.518;2023-09-08T11:55:29;29.10;99.90
7002;DHT22;3541;53.230;10.518;2023-09-08T11:57:57;29.20;99.90
7002;DHT22;3541;53.230;10.518;2023-09-08T12:00:27;29.20;99.90
7002;DHT22;3541;53.230;10.518;2023-09-08T12:02:54;29.20;99.90
7002;DHT22;3541;53.230;10.518;2023-09-08T12:05:21;29.20;99.90
7002;DHT22;3541;53.230;10.518;2023-09-08T12:07:49;29.40;99.90
7002;DHT22;3541;53.230;10.518;2023-09-08T12:10:16;29.40;99.90
7002;DHT22;3541;53.230;10.518;2023-09-08T12:12:45;29.50;99.90
7002;DHT22;3541;53.230;10.518;2023-09-08T12:15:29;29.50;99.90
7002;DHT22;3541;53.230;10.518;2023-09-08T12:17:57;29.50;99.90
7002;DHT22;3541;53.230;10.518;2023-09-08T12:20:23;29.60;99.90
7002;DHT22;3541;53.230;10.518;2023-09-08T12:22:50;29.60;99.90
7002;DHT22;3541;53.230;10.518;2023-09-08T12:25:17;29.70;99.90
7002;DHT22;3541;53.230;10.518;2023-09-08T12:27:45;29.70;99.90
7002;DHT22;3541;53.230;10.518;2023-09-08T12:30:18;29.80;99.90
7002;DHT22;3541;53.230;10.518;2023-09-08T12:32:46;29.90;99.90
7002;DHT22;3541;53.230;10.518;2023-09-08T12:35:19;30.00;99.90
7002;DHT22;3541;53.230;10.518;2023-09-08T12:37:46;30.10;99.90
7002;DHT22;3541;53.230;10.518;2023-09-08T12:40:13;30.10;99.90
7002;DHT22;3541;53.230;10.518;2023-09-08T12:42:40;30.10;99.90
7002;DHT22;3541;53.230;10.518;2023-09-08T12:45:08;30.10;99.90
7002;DHT22;3541;53.230;10.518;2023-09-08T12:47:35;30.10;99.90
7002;DHT22;3541;53.230;10.518;2023-09-08T12:50:02;30.20;99.90
7002;DHT22;3541;53.230;10.518;2023-09-08T12:52:29;30.30;99.90
7002;DHT22;3541;53.230;10.518;2023-09-08T12:54:57;30.50;99.90
7002;DHT22;3541;53.230;10.518;2023-09-08T12:57:23;30.40;99.90
7002;DHT22;3541;53.230;10.518;2023-09-08T12:59:50;30.50;99.90
7002;DHT22;3541;53.230;10.518;2023-09-08T13:02:17;30.60;99.90
7002;DHT22;3541;53.230;10.518;2023-09-08T13:04:44;30.60;99.90
7002;DHT22;3541;53.230;10.518;2023-09-08T13:07:13;30.60;99.90
7002;DHT22;3541;53.230;10.518;2023-09-08T13:09:40;30.50;99.90
7002;DHT22;3541;53.230;10.518;2023-09-08T13:12:07;30.50;99.90
7002;DHT22;3541;53.230;10.518;2023-09-08T13:14:34;30.50;99.90
7002;DHT22;3541;53.230;10.518;2023-09-08T13:17:01;30.50;99.90
7002;DHT22;3541;53.230;10.518;2023-09-08T13:19:27;30.70;99.90
7002;DHT22;3541;53.230;10.518;2023-09-08T13:21:55;30.80;99.90
7002;DHT22;3541;53.230;10.518;2023-09-08T13:24:22;30.90;99.90
7002;DHT22;3541;53.230;10.518;2023-09-08T13:26:49;31.00;99.90
7002;DHT22;3541;53.230;10.518;2023-09-08T13:29:16;31.10;99.90
7002;DHT22;3541;53.230;10.518;2023-09-08T13:31:44;31.20;99.90
7002;DHT22;3541;53.230;10.518;2023-09-08T13:34:10;31.20;99.90
7002;DHT22;3541;53.230;10.518;2023-09-08T13:36:37;31.30;99.90
7002;DHT22;3541;53.230;10.518;2023-09-08T13:39:05;31.30;99.90
7002;DHT22;3541;53.230;10.518;2023-09-08T13:41:45;31.40;99.90
7002;DHT22;3541;53.230;10.518;2023-09-08T13:44:11;31.50;99.90
7002;DHT22;3541;53.230;10.518;2023-09-08T13:46:38;31.70;99.90
7002;DHT22;3541;53.230;10.518;2023-09-08T13:49:04;31.80;99.90
7002;DHT22;3541;53.230;10.518;2023-09-08T13:51:31;31.90;99.90
7002;DHT22;3541;53.230;10.518;2023-09-08T13:53:58;31.90;99.90
7002;DHT22;3541;53.230;10.518;2023-09-08T13:56:26;32.00;99.90
7002;DHT22;3541;53.230;10.518;2023-09-08T13:58:53;32.10;99.90
7002;DHT22;3541;53.230;10.518;2023-09-08T14:01:19;32.20;99.90
7002;DHT22;3541;53.230;10.518;2023-09-08T14:03:46;32.20;99.90
7002;DHT22;3541;53.230;10.518;2023-09-08T14:06:14;32.30;99.90
7002;DHT22;3541;53.230;10.518;2023-09-08T14:08:41;32.40;99.90
7002;DHT22;3541;53.230;10.518;2023-09-08T14:11:08;32.60;99.90
7002;DHT22;3541;53.230;10.518;2023-09-08T14:13:35;32.60;99.90
7002;DHT22;3541;53.230;10.518;2023-09-08T14:16:02;32.80;99.90
7002;DHT22;3541;53.230;10.518;2023-09-08T14:18:29;32.90;99.90
7002;DHT22;3541;53.230;10.518;2023-09-08T14:20:55;33.10;99.90
7002;DHT22;3541;53.230;10.518;2023-09-08T14:23:22;33.10;99.90
7002;DHT22;3541;53.230;10.518;2023-09-08T14:25:49;33.20;99.60
7002;DHT22;3541;53.230;10.518;2023-09-08T14:28:15;33.20;99.00
7002;DHT22;3541;53.230;10.518;2023-09-08T14:30:43;33.30;97.90
7002;DHT22;3541;53.230;10.518;2023-09-08T14:33:10;33.20;97.90
7002;DHT22;3541;53.230;10.518;2023-09-08T14:35:41;33.40;98.10
7002;DHT22;3541;53.230;10.518;2023-09-08T14:38:08;33.30;96.90
7002;DHT22;3541;53.230;10.518;2023-09-08T14:40:35;33.40;96.20
7002;DHT22;3541;53.230;10.518;2023-09-08T14:43:01;33.40;96.50
7002;DHT22;3541;53.230;10.518;2023-09-08T14:45:28;33.40;95.90
7002;DHT22;3541;53.230;10.518;2023-09-08T14:47:56;33.50;95.90
7002;DHT22;3541;53.230;10.518;2023-09-08T14:50:22;33.50;96.10
7002;DHT22;3541;53.230;10.518;2023-09-08T14:52:49;33.50;95.80
7002;DHT22;3541;53.230;10.518;2023-09-08T14:55:16;33.50;95.50
7002;DHT22;3541;53.230;10.518;2023-09-08T14:57:42;33.50;95.30
7002;DHT22;3541;53.230;10.518;2023-09-08T15:00:10;33.60;94.90
7002;DHT22;3541;53.230;10.518;2023-09-08T15:02:36;33.70;95.00
7002;DHT22;3541;53.230;10.518;2023-09-08T15:05:05;33.80;94.90
7002;DHT22;3541;53.230;10.518;2023-09-08T15:07:31;33.80;93.70
7002;DHT22;3541;53.230;10.518;2023-09-08T15:09:58;33.90;94.00
7002;DHT22;3541;53.230;10.518;2023-09-08T15:12:24;33.90;93.40
7002;DHT22;3541;53.230;10.518;2023-09-08T15:14:51;34.00;93.10
7002;DHT22;3541;53.230;10.518;2023-09-08T15:17:17;34.00;93.00
7002;DHT22;3541;53.230;10.518;2023-09-08T15:19:44;34.00;92.50
7002;DHT22;3541;53.230;10.518;2023-09-08T15:22:12;33.90;92.10
7002;DHT22;3541;53.230;10.518;2023-09-08T15:24:38;34.00;92.50
7002;DHT22;3541;53.230;10.518;2023-09-08T15:27:05;34.10;92.20
7002;DHT22;3541;53.230;10.518;2023-09-08T15:29:32;34.10;91.60
7002;DHT22;3541;53.230;10.518;2023-09-08T15:31:58;34.20;92.00
7002;DHT22;3541;53.230;10.518;2023-09-08T15:34:25;34.30;92.70
7002;DHT22;3541;53.230;10.518;2023-09-08T15:36:52;34.30;92.90
7002;DHT22;3541;53.230;10.518;2023-09-08T15:39:20;34.10;92.20
7002;DHT22;3541;53.230;10.518;2023-09-08T15:41:46;34.20;92.60
7002;DHT22;3541;53.230;10.518;2023-09-08T15:44:13;34.20;92.50
7002;DHT22;3541;53.230;10.518;2023-09-08T15:46:40;34.20;87.80